createdAt,value
2022-08-17T00:00:18.266Z,92130.44
2022-08-17T00:05:39.510Z,92135.59
2022-08-17T00:10:43.990Z,92139.72
2022-08-17T00:15:46.376Z,92145.66
2022-08-17T00:20:48.525Z,92152.19
2022-08-17T00:25:51.198Z,92152.19
2022-08-17T00:30:54.487Z,92160.13
2022-08-17T00:35:58.161Z,92027.13
2022-08-17T00:41:04.014Z,92153.31
2022-08-17T00:46:19.291Z,92144.44
2022-08-17T00:51:40.144Z,92156.81
2022-08-17T00:56:47.828Z,92162.28
2022-08-17T01:01:51.001Z,92155.25
2022-08-17T01:06:53.861Z,92177.34
2022-08-17T01:11:56.154Z,92176.19
2022-08-17T01:17:00.401Z,92182.22
2022-08-17T01:22:14.051Z,92186.47
2022-08-17T01:27:18.518Z,92173.72
2022-08-17T01:32:22.856Z,92194.94
2022-08-17T01:37:34.778Z,92197.59
2022-08-17T01:42:44.333Z,92205.44
2022-08-17T01:47:46.524Z,92189.34
2022-08-17T01:52:54.359Z,92185.75
2022-08-17T01:57:56.541Z,92151.19
2022-08-17T02:02:58.727Z,92161.19
2022-08-17T02:08:01.931Z,92170.97
2022-08-17T02:13:05.153Z,92159.28
2022-08-17T02:18:09.335Z,92153.47
2022-08-17T02:23:13.004Z,92139.41
2022-08-17T02:28:15.905Z,92119.06
2022-08-17T02:33:18.357Z,92107.91
2022-08-17T02:38:22.482Z,92107.88
2022-08-17T02:43:27.534Z,92090.09
2022-08-17T02:48:31.694Z,92080.25
2022-08-17T02:53:36.509Z,92084.53
2022-08-17T02:58:38.690Z,92072.75
2022-08-17T03:03:41.469Z,92043.56
2022-08-17T03:08:43.651Z,92040.16
2022-08-17T03:13:46.104Z,92028.63
2022-08-17T03:18:48.673Z,92022.63
2022-08-17T03:23:54.522Z,92009.16
2022-08-17T03:28:57.185Z,92001.78
2022-08-17T03:33:59.401Z,91998.63
2022-08-17T03:39:02.090Z,92003.34
2022-08-17T03:44:04.645Z,92010.69
2022-08-17T03:49:26.973Z,92013.22
2022-08-17T03:54:47.922Z,92008.50
2022-08-17T03:59:51.110Z,92032.97
2022-08-17T04:04:54.007Z,91994.66
2022-08-17T04:09:58.184Z,91958.28
2022-08-17T04:15:00.607Z,91921.34
2022-08-17T04:20:02.934Z,91999.59
2022-08-17T04:25:07.123Z,92021.06
2022-08-17T04:30:09.946Z,92030.13
2022-08-17T04:35:12.126Z,92028.06
2022-08-17T04:40:32.981Z,92056.09
2022-08-17T04:45:40.706Z,92039.44
2022-08-17T04:50:59.659Z,92056.97
2022-08-17T04:56:02.027Z,92029.66
2022-08-17T05:01:05.999Z,92060.88
2022-08-17T05:06:09.021Z,92077.56
2022-08-17T05:11:11.289Z,92078.63
2022-08-17T05:16:13.595Z,92070.78
2022-08-17T05:21:16.761Z,92087.06
2022-08-17T05:26:26.761Z,92096.31
2022-08-17T05:31:30.552Z,92112.00
2022-08-17T05:36:43.461Z,92091.16
2022-08-17T05:41:48.178Z,92125.88
2022-08-17T05:46:53.345Z,92130.63
2022-08-17T05:52:07.070Z,92145.47
2022-08-17T05:57:18.061Z,92175.13
2022-08-17T06:02:48.205Z,92191.94
2022-08-17T06:07:59.661Z,92179.25
2022-08-17T06:13:11.082Z,92210.56
2022-08-17T06:18:18.912Z,92228.88
2022-08-17T06:23:43.430Z,92213.47
2022-08-17T06:28:59.225Z,92177.38
2022-08-17T06:34:06.388Z,92211.91
2022-08-17T06:39:24.429Z,92204.41
2022-08-17T06:44:43.304Z,92191.94
2022-08-17T06:50:03.399Z,92197.53
2022-08-17T06:55:18.145Z,92189.47
2022-08-17T07:00:26.714Z,92203.25
2022-08-17T07:05:38.837Z,92206.94
2022-08-17T07:10:51.262Z,92231.31
2022-08-17T07:15:59.699Z,92246.91
2022-08-17T07:21:29.480Z,92228.97
2022-08-17T07:26:34.640Z,92220.06
2022-08-17T07:31:39.081Z,92217.34
2022-08-17T07:36:42.993Z,92216.53
2022-08-17T07:41:57.061Z,92217.44
2022-08-17T07:47:19.551Z,92225.81
2022-08-17T07:52:51.185Z,92213.22
2022-08-17T07:57:59.062Z,92213.91
2022-08-17T08:03:11.620Z,92192.56
2022-08-17T08:08:43.615Z,92183.47
2022-08-17T08:13:46.144Z,92198.91
2022-08-17T08:18:55.382Z,92220.25
2022-08-17T08:24:20.233Z,92213.44
2022-08-17T08:29:49.251Z,92213.13
2022-08-17T08:35:13.950Z,92201.69
2022-08-17T08:40:34.337Z,92200.84
2022-08-17T08:46:05.960Z,92193.34
2022-08-17T08:51:19.322Z,92174.41
2022-08-17T08:56:21.994Z,92189.97
2022-08-17T09:01:51.247Z,92191.63
2022-08-17T09:07:17.789Z,92177.88
2022-08-17T09:12:50.011Z,92189.53
2022-08-17T09:18:59.820Z,92174.31
2022-08-17T09:23:35.193Z,92177.53
2022-08-17T09:28:40.425Z,92172.94
2022-08-17T09:33:48.435Z,92162.16
2022-08-17T09:39:04.185Z,92184.66
2022-08-17T09:44:36.661Z,92184.31
2022-08-17T09:49:47.343Z,92185.44
2022-08-17T09:54:51.814Z,92167.84
2022-08-17T10:00:19.047Z,92137.75
2022-08-17T10:05:30.324Z,92183.34
2022-08-17T10:10:56.352Z,92178.84
2022-08-17T10:16:07.901Z,92173.91
2022-08-17T10:21:35.304Z,92131.28
2022-08-17T10:26:55.484Z,92138.50
2022-08-17T10:32:07.190Z,92128.13
2022-08-17T10:37:28.438Z,92130.16
2022-08-17T10:42:42.776Z,92129.50
2022-08-17T10:48:04.760Z,92120.81
2022-08-17T10:53:08.077Z,92104.31
2022-08-17T10:58:24.528Z,92121.94
2022-08-17T11:03:29.790Z,92115.66
2022-08-17T11:08:55.129Z,92120.00
2022-08-17T11:14:36.789Z,92126.03
2022-08-17T11:20:12.593Z,92126.25
2022-08-17T11:25:32.396Z,92120.00
2022-08-17T11:30:40.668Z,92100.94
2022-08-17T11:35:54.510Z,92112.22
2022-08-17T11:41:35.142Z,92109.13
2022-08-17T11:47:09.539Z,92062.72
2022-08-17T11:52:36.729Z,92093.66
2022-08-17T11:57:40.449Z,92066.69
2022-08-17T12:02:48.159Z,92046.88
2022-08-17T12:08:12.829Z,92047.34
2022-08-17T12:13:16.810Z,92047.19
2022-08-17T12:18:32.096Z,92069.81
2022-08-17T12:23:47.494Z,92060.44
2022-08-17T12:28:57.538Z,92044.69
2022-08-17T12:34:04.605Z,92045.00
2022-08-17T12:39:13.848Z,92031.69
2022-08-17T12:44:46.122Z,92045.81
2022-08-17T12:49:54.888Z,92034.34
2022-08-17T12:55:18.709Z,92025.75
2022-08-17T13:00:31.723Z,92001.56
2022-08-17T13:05:38.061Z,92008.63
2022-08-17T13:10:40.616Z,91979.66
2022-08-17T13:15:53.582Z,91980.44
2022-08-17T13:20:59.289Z,91967.84
2022-08-17T13:26:07.137Z,91974.03
2022-08-17T13:31:30.491Z,91984.47
2022-08-17T13:36:33.757Z,91959.31
2022-08-17T13:41:38.015Z,91988.06
2022-08-17T13:46:40.215Z,91989.22
2022-08-17T13:51:44.912Z,91993.88
2022-08-17T13:56:55.851Z,91989.47
2022-08-17T14:01:58.769Z,91992.13
2022-08-17T14:07:11.615Z,91997.31
2022-08-17T14:12:17.420Z,91991.06
2022-08-17T14:17:19.969Z,91985.75
2022-08-17T14:22:27.967Z,91986.56
2022-08-17T14:27:51.895Z,92003.75
2022-08-17T14:32:56.617Z,91982.59
2022-08-17T14:37:58.822Z,91952.25
2022-08-17T14:43:01.475Z,91955.91
2022-08-17T14:48:08.641Z,91976.44
2022-08-17T14:53:15.129Z,91960.44
2022-08-17T14:58:18.113Z,91962.31
2022-08-17T15:03:20.943Z,91959.69
2022-08-17T15:08:23.150Z,91949.16
2022-08-17T15:13:26.909Z,91964.44
2022-08-17T15:18:30.367Z,91977.06
2022-08-17T15:23:32.982Z,91846.78
2022-08-17T15:28:35.524Z,91990.34
2022-08-17T15:33:37.745Z,91940.13
2022-08-17T15:38:41.038Z,91957.41
2022-08-17T15:43:50.028Z,91951.47
2022-08-17T15:48:55.688Z,91991.66
2022-08-17T15:54:19.067Z,92109.63
2022-08-17T15:59:24.790Z,92029.06
2022-08-17T16:04:30.802Z,92051.06
2022-08-17T16:09:33.862Z,92079.78
2022-08-17T16:14:36.485Z,92131.06
2022-08-17T16:19:39.706Z,92138.75
2022-08-17T16:24:57.247Z,92138.44
2022-08-17T16:30:00.640Z,92177.47
2022-08-17T16:35:08.200Z,92196.16
2022-08-17T16:40:11.714Z,92236.91
2022-08-17T16:45:23.520Z,92258.66
2022-08-17T16:50:26.804Z,92288.59
2022-08-17T16:55:28.894Z,92315.75
2022-08-17T17:00:33.432Z,92335.13
2022-08-17T17:05:55.135Z,92347.09
2022-08-17T17:11:08.952Z,92333.66
2022-08-17T17:16:28.540Z,92294.28
2022-08-17T17:21:42.507Z,92347.28
2022-08-17T17:26:50.827Z,92343.16
2022-08-17T17:32:20.989Z,92364.22
2022-08-17T17:37:32.692Z,92367.50
2022-08-17T17:42:39.225Z,92362.94
2022-08-17T17:47:41.958Z,92350.09
2022-08-17T17:52:54.010Z,92377.16
2022-08-17T17:58:48.525Z,92388.91
2022-08-17T18:04:14.279Z,92372.81
2022-08-17T18:10:05.769Z,92400.88
2022-08-17T18:15:34.895Z,92419.03
2022-08-17T18:20:53.453Z,92407.09
2022-08-17T18:25:58.860Z,92425.59
2022-08-17T18:31:13.260Z,92452.75
2022-08-17T18:36:34.342Z,92461.22
2022-08-17T18:41:46.155Z,92458.28
2022-08-17T18:46:48.336Z,92481.41
2022-08-17T18:52:17.408Z,92489.88
2022-08-17T18:57:34.713Z,92485.88
2022-08-17T19:02:56.431Z,92503.13
2022-08-17T19:08:29.650Z,92514.78
2022-08-17T19:13:37.145Z,92522.53
2022-08-17T19:18:52.042Z,92526.13
2022-08-17T19:24:05.134Z,92498.50
2022-08-17T19:29:22.565Z,92483.13
2022-08-17T19:34:34.016Z,92473.88
2022-08-17T19:39:42.421Z,92504.44
2022-08-17T19:44:52.828Z,92495.44
2022-08-17T19:50:16.546Z,92495.22
2022-08-17T19:55:31.850Z,92490.63
2022-08-17T20:00:41.970Z,92472.44
2022-08-17T20:06:11.432Z,92466.22
2022-08-17T20:11:21.239Z,92447.06
2022-08-17T20:16:24.761Z,92428.13
2022-08-17T20:21:34.574Z,92434.53
2022-08-17T20:26:58.604Z,92453.25
2022-08-17T20:32:01.126Z,92470.94
2022-08-17T20:37:10.298Z,92424.75
2022-08-17T20:42:21.302Z,92462.72
2022-08-17T20:47:32.801Z,92451.59
2022-08-17T20:52:43.544Z,92434.09
2022-08-17T20:57:49.076Z,92400.53
2022-08-17T21:03:12.150Z,92334.13
2022-08-17T21:08:17.066Z,92391.25
2022-08-17T21:13:22.102Z,92406.28
2022-08-17T21:18:47.653Z,92396.47
2022-08-17T21:23:55.680Z,92386.91
2022-08-17T21:29:31.020Z,92386.28
2022-08-17T21:34:45.353Z,92381.50
2022-08-17T21:40:00.606Z,92389.72
2022-08-17T21:45:26.136Z,92391.63
2022-08-17T21:50:28.377Z,92381.16
2022-08-17T21:55:36.169Z,92370.84
2022-08-17T22:00:38.541Z,92339.56
2022-08-17T22:05:40.743Z,92334.22
2022-08-17T22:10:45.084Z,92350.91
2022-08-17T22:16:15.317Z,92358.06
2022-08-17T22:21:30.439Z,92367.50
2022-08-17T22:26:59.519Z,92375.22
2022-08-17T22:32:01.701Z,92404.94
2022-08-17T22:37:29.116Z,92419.97
2022-08-17T22:42:48.643Z,92411.16
2022-08-17T22:47:55.709Z,92444.00
2022-08-17T22:53:20.437Z,92461.72
2022-08-17T22:58:43.513Z,92402.75
2022-08-17T23:04:12.165Z,92427.28
2022-08-17T23:09:14.343Z,92397.47
2022-08-17T23:14:19.306Z,92441.59
2022-08-17T23:19:21.819Z,92444.16
2022-08-17T23:24:30.027Z,92434.69
2022-08-17T23:29:32.229Z,92440.75
2022-08-17T23:34:34.771Z,92446.22
2022-08-17T23:39:37.753Z,92447.59
2022-08-17T23:44:41.782Z,92454.22
2022-08-17T23:49:44.055Z,92439.06
2022-08-17T23:54:48.378Z,92446.94
2022-08-17T23:59:50.537Z,92451.44
